sensor_id;sensor_type;location;lat;lon;timestamp;pressure;altitude;pressure_sealevel;temperature
6454;BMP180;3260;52.438;13.502;2022-07-17T04:01:56;101869.00;;;12.50
6454;BMP180;3260;52.438;13.502;2022-07-17T04:04:25;101870.00;;;12.40
6454;BMP180;3260;52.438;13.502;2022-07-17T04:06:54;101870.00;;;12.80
6454;BMP180;3260;52.438;13.502;2022-07-17T04:09:22;101865.00;;;12.80
6454;BMP180;3260;52.438;13.502;2022-07-17T04:11:50;101871.00;;;12.60
6454;BMP180;3260;52.438;13.502;2022-07-17T04:14:18;101878.00;;;12.60
6454;BMP180;3260;52.438;13.502;2022-07-17T04:16:46;101882.00;;;12.70
6454;BMP180;3260;52.438;13.502;2022-07-17T04:19:16;101890.00;;;12.90
6454;BMP180;3260;52.438;13.502;2022-07-17T04:21:44;101891.00;;;12.90
6454;BMP180;3260;52.438;13.502;2022-07-17T04:24:12;101898.00;;;12.80
6454;BMP180;3260;52.438;13.502;2022-07-17T04:26:40;101887.00;;;13.10
6454;BMP180;3260;52.438;13.502;2022-07-17T04:29:08;101891.00;;;13.10
6454;BMP180;3260;52.438;13.502;2022-07-17T04:31:36;101889.00;;;13.30
6454;BMP180;3260;52.438;13.502;2022-07-17T04:34:05;101882.00;;;13.60
6454;BMP180;3260;52.438;13.502;2022-07-17T04:36:34;101889.00;;;13.80
6454;BMP180;3260;52.438;13.502;2022-07-17T04:39:02;101895.00;;;13.40
6454;BMP180;3260;52.438;13.502;2022-07-17T04:41:31;101900.00;;;13.50
6454;BMP180;3260;52.438;13.502;2022-07-17T04:43:59;101891.00;;;13.70
6454;BMP180;3260;52.438;13.502;2022-07-17T04:46:27;101899.00;;;14.50
6454;BMP180;3260;52.438;13.502;2022-07-17T04:48:58;101900.00;;;14.70
6454;BMP180;3260;52.438;13.502;2022-07-17T04:51:28;101905.00;;;14.70
6454;BMP180;3260;52.438;13.502;2022-07-17T04:54:04;101900.00;;;14.50
6454;BMP180;3260;52.438;13.502;2022-07-17T04:56:32;101897.00;;;15.00
6454;BMP180;3260;52.438;13.502;2022-07-17T04:59:00;101894.00;;;14.90
6454;BMP180;3260;52.438;13.502;2022-07-17T05:01:29;101902.00;;;14.60
6454;BMP180;3260;52.438;13.502;2022-07-17T05:03:58;101904.00;;;14.70
6454;BMP180;3260;52.438;13.502;2022-07-17T05:06:26;101896.00;;;15.00
6454;BMP180;3260;52.438;13.502;2022-07-17T05:08:54;101899.00;;;14.80
6454;BMP180;3260;52.438;13.502;2022-07-17T05:11:23;101897.00;;;15.00
6454;BMP180;3260;52.438;13.502;2022-07-17T05:13:52;101898.00;;;14.90
6454;BMP180;3260;52.438;13.502;2022-07-17T05:16:20;101897.00;;;14.80
6454;BMP180;3260;52.438;13.502;2022-07-17T05:18:49;101896.00;;;14.90
6454;BMP180;3260;52.438;13.502;2022-07-17T05:21:17;101893.00;;;15.00
6454;BMP180;3260;52.438;13.502;2022-07-17T05:23:45;101903.00;;;15.10
6454;BMP180;3260;52.438;13.502;2022-07-17T05:26:13;101895.00;;;15.40
6454;BMP180;3260;52.438;13.502;2022-07-17T05:28:43;101908.00;;;15.70
6454;BMP180;3260;52.438;13.502;2022-07-17T05:31:11;101907.00;;;15.50
6454;BMP180;3260;52.438;13.502;2022-07-17T05:33:39;101909.00;;;15.80
6454;BMP180;3260;52.438;13.502;2022-07-17T05:36:08;101917.00;;;16.10
6454;BMP180;3260;52.438;13.502;2022-07-17T05:38:36;101905.00;;;15.90
6454;BMP180;3260;52.438;13.502;2022-07-17T05:41:05;101917.00;;;16.30
6454;BMP180;3260;52.438;13.502;2022-07-17T05:43:33;101927.00;;;15.90
6454;BMP180;3260;52.438;13.502;2022-07-17T05:46:03;101905.00;;;16.10
6454;BMP180;3260;52.438;13.502;2022-07-17T05:48:31;101923.00;;;16.30
6454;BMP180;3260;52.438;13.502;2022-07-17T05:51:00;101934.00;;;16.10
6454;BMP180;3260;52.438;13.502;2022-07-17T05:53:37;101928.00;;;16.30
6454;BMP180;3260;52.438;13.502;2022-07-17T05:56:06;101933.00;;;16.10
6454;BMP180;3260;52.438;13.502;2022-07-17T05:58:34;101935.00;;;16.00
6454;BMP180;3260;52.438;13.502;2022-07-17T06:01:04;101941.00;;;16.40
6454;BMP180;3260;52.438;13.502;2022-07-17T06:03:32;101941.00;;;16.60
6454;BMP180;3260;52.438;13.502;2022-07-17T06:06:00;101949.00;;;17.00
6454;BMP180;3260;52.438;13.502;2022-07-17T06:08:29;101947.00;;;16.80
6454;BMP180;3260;52.438;13.502;2022-07-17T06:10:57;101950.00;;;16.60
6454;BMP180;3260;52.438;13.502;2022-07-17T06:13:25;101949.00;;;16.70
6454;BMP180;3260;52.438;13.502;2022-07-17T06:15:53;101956.00;;;17.40
6454;BMP180;3260;52.438;13.502;2022-07-17T06:18:27;101957.00;;;17.70
6454;BMP180;3260;52.438;13.502;2022-07-17T06:20:55;101965.00;;;18.10
6454;BMP180;3260;52.438;13.502;2022-07-17T06:23:23;101952.00;;;17.40
6454;BMP180;3260;52.438;13.502;2022-07-17T06:25:52;101958.00;;;17.30
6454;BMP180;3260;52.438;13.502;2022-07-17T06:28:20;101955.00;;;17.10
6454;BMP180;3260;52.438;13.502;2022-07-17T06:30:48;101951.00;;;17.60
6454;BMP180;3260;52.438;13.502;2022-07-17T06:33:16;101961.00;;;17.60
6454;BMP180;3260;52.438;13.502;2022-07-17T06:35:46;101963.00;;;17.60
6454;BMP180;3260;52.438;13.502;2022-07-17T06:38:14;101949.00;;;18.20
6454;BMP180;3260;52.438;13.502;2022-07-17T06:40:42;101958.00;;;18.00
6454;BMP180;3260;52.438;13.502;2022-07-17T06:43:11;101959.00;;;18.50
6454;BMP180;3260;52.438;13.502;2022-07-17T06:45:39;101955.00;;;17.80
6454;BMP180;3260;52.438;13.502;2022-07-17T06:48:07;101959.00;;;18.00
6454;BMP180;3260;52.438;13.502;2022-07-17T06:50:36;101957.00;;;18.60
6454;BMP180;3260;52.438;13.502;2022-07-17T06:53:05;101967.00;;;18.40
6454;BMP180;3260;52.438;13.502;2022-07-17T06:55:33;101961.00;;;18.40
6454;BMP180;3260;52.438;13.502;2022-07-17T06:58:01;101964.00;;;18.50
6454;BMP180;3260;52.438;13.502;2022-07-17T07:00:30;101974.00;;;18.40
6454;BMP180;3260;52.438;13.502;2022-07-17T07:02:58;101970.00;;;18.40
6454;BMP180;3260;52.438;13.502;2022-07-17T07:05:26;101958.00;;;18.60
6454;BMP180;3260;52.438;13.502;2022-07-17T07:07:54;101964.00;;;18.50
6454;BMP180;3260;52.438;13.502;2022-07-17T07:10:23;101970.00;;;18.40
6454;BMP180;3260;52.438;13.502;2022-07-17T07:12:52;101940.00;;;19.20
6454;BMP180;3260;52.438;13.502;2022-07-17T07:15:23;101972.00;;;19.30
6454;BMP180;3260;52.438;13.502;2022-07-17T07:17:51;101954.00;;;19.70
6454;BMP180;3260;52.438;13.502;2022-07-17T07:20:19;101979.00;;;20.00
6454;BMP180;3260;52.438;13.502;2022-07-17T07:22:48;101982.00;;;19.70
6454;BMP180;3260;52.438;13.502;2022-07-17T07:25:17;101979.00;;;20.40
6454;BMP180;3260;52.438;13.502;2022-07-17T07:27:46;101983.00;;;20.10
6454;BMP180;3260;52.438;13.502;2022-07-17T07:30:15;101975.00;;;20.80
6454;BMP180;3260;52.438;13.502;2022-07-17T07:32:43;101986.00;;;19.90
6454;BMP180;3260;52.438;13.502;2022-07-17T07:35:11;101969.00;;;19.80
6454;BMP180;3260;52.438;13.502;2022-07-17T07:37:39;101983.00;;;19.40
6454;BMP180;3260;52.438;13.502;2022-07-17T07:40:09;101984.00;;;20.00
6454;BMP180;3260;52.438;13.502;2022-07-17T07:42:38;101990.00;;;19.80
6454;BMP180;3260;52.438;13.502;2022-07-17T07:45:09;101980.00;;;20.00
6454;BMP180;3260;52.438;13.502;2022-07-17T07:47:42;101992.00;;;20.40
6454;BMP180;3260;52.438;13.502;2022-07-17T07:50:11;101993.00;;;19.90
6454;BMP180;3260;52.438;13.502;2022-07-17T07:52:40;101998.00;;;19.30
6454;BMP180;3260;52.438;13.502;2022-07-17T07:55:10;101990.00;;;18.70
6454;BMP180;3260;52.438;13.502;2022-07-17T07:57:46;101995.00;;;18.10
6454;BMP180;3260;52.438;13.502;2022-07-17T08:00:17;101987.00;;;18.50
6454;BMP180;3260;52.438;13.502;2022-07-17T08:02:45;101990.00;;;18.40
6454;BMP180;3260;52.438;13.502;2022-07-17T08:05:13;102000.00;;;18.50
6454;BMP180;3260;52.438;13.502;2022-07-17T08:07:41;102002.00;;;18.60
6454;BMP180;3260;52.438;13.502;2022-07-17T08:10:10;102007.00;;;18.50
6454;BMP180;3260;52.438;13.502;2022-07-17T08:12:38;101998.00;;;18.30
6454;BMP180;3260;52.438;13.502;2022-07-17T08:15:13;101997.00;;;18.30
6454;BMP180;3260;52.438;13.502;2022-07-17T08:17:43;102014.00;;;18.30
6454;BMP180;3260;52.438;13.502;2022-07-17T08:20:13;101997.00;;;18.10
6454;BMP180;3260;52.438;13.502;2022-07-17T08:22:42;102005.00;;;18.40
6454;BMP180;3260;52.438;13.502;2022-07-17T08:25:31;102004.00;;;18.90
6454;BMP180;3260;52.438;13.502;2022-07-17T08:28:01;102010.00;;;18.90
6454;BMP180;3260;52.438;13.502;2022-07-17T08:30:29;102009.00;;;18.80
6454;BMP180;3260;52.438;13.502;2022-07-17T08:33:04;102009.00;;;18.60
6454;BMP180;3260;52.438;13.502;2022-07-17T08:35:33;102011.00;;;19.20
6454;BMP180;3260;52.438;13.502;2022-07-17T08:38:03;102011.00;;;19.50
6454;BMP180;3260;52.438;13.502;2022-07-17T08:40:34;102011.00;;;20.50
6454;BMP180;3260;52.438;13.502;2022-07-17T08:43:05;102007.00;;;21.40
6454;BMP180;3260;52.438;13.502;2022-07-17T08:45:35;102004.00;;;21.90
6454;BMP180;3260;52.438;13.502;2022-07-17T08:48:16;102009.00;;;21.10
6454;BMP180;3260;52.438;13.502;2022-07-17T08:50:47;102016.00;;;21.40
6454;BMP180;3260;52.438;13.502;2022-07-17T08:53:16;102011.00;;;20.20
6454;BMP180;3260;52.438;13.502;2022-07-17T08:55:44;102015.00;;;20.50
6454;BMP180;3260;52.438;13.502;2022-07-17T08:58:15;102018.00;;;21.10
6454;BMP180;3260;52.438;13.502;2022-07-17T09:00:44;102019.00;;;21.40
6454;BMP180;3260;52.438;13.502;2022-07-17T09:03:15;102026.00;;;21.50
6454;BMP180;3260;52.438;13.502;2022-07-17T09:05:45;102011.00;;;22.00
6454;BMP180;3260;52.438;13.502;2022-07-17T09:08:19;102022.00;;;21.80
6454;BMP180;3260;52.438;13.502;2022-07-17T09:10:51;102023.00;;;21.60
6454;BMP180;3260;52.438;13.502;2022-07-17T09:13:23;102005.00;;;21.80
6454;BMP180;3260;52.438;13.502;2022-07-17T09:15:59;102020.00;;;21.70
6454;BMP180;3260;52.438;13.502;2022-07-17T09:18:44;102021.00;;;21.60
6454;BMP180;3260;52.438;13.502;2022-07-17T09:21:18;102016.00;;;22.40
6454;BMP180;3260;52.438;13.502;2022-07-17T09:23:58;102018.00;;;22.30
6454;BMP180;3260;52.438;13.502;2022-07-17T09:26:27;102017.00;;;22.90
6454;BMP180;3260;52.438;13.502;2022-07-17T09:28:56;102019.00;;;22.60
6454;BMP180;3260;52.438;13.502;2022-07-17T09:31:25;102021.00;;;22.80
6454;BMP180;3260;52.438;13.502;2022-07-17T09:33:57;102021.00;;;23.30
6454;BMP180;3260;52.438;13.502;2022-07-17T09:36:26;102008.00;;;22.90
6454;BMP180;3260;52.438;13.502;2022-07-17T09:38:58;102014.00;;;23.80
6454;BMP180;3260;52.438;13.502;2022-07-17T09:41:26;102006.00;;;22.70
6454;BMP180;3260;52.438;13.502;2022-07-17T09:44:01;102015.00;;;22.60
6454;BMP180;3260;52.438;13.502;2022-07-17T09:46:32;102008.00;;;23.30
6454;BMP180;3260;52.438;13.502;2022-07-17T09:49:05;102011.00;;;23.00
6454;BMP180;3260;52.438;13.502;2022-07-17T09:51:36;102013.00;;;21.60
6454;BMP180;3260;52.438;13.502;2022-07-17T09:54:08;102023.00;;;22.20
6454;BMP180;3260;52.438;13.502;2022-07-17T09:56:39;102005.00;;;21.00
6454;BMP180;3260;52.438;13.502;2022-07-17T09:59:10;102013.00;;;21.10
6454;BMP180;3260;52.438;13.502;2022-07-17T10:01:41;102028.00;;;21.60
6454;BMP180;3260;52.438;13.502;2022-07-17T10:04:12;102027.00;;;21.40
6454;BMP180;3260;52.438;13.502;2022-07-17T10:06:40;102028.00;;;21.30
6454;BMP180;3260;52.438;13.502;2022-07-17T10:09:08;102019.00;;;21.10
6454;BMP180;3260;52.438;13.502;2022-07-17T10:11:40;102024.00;;;20.60
6454;BMP180;3260;52.438;13.502;2022-07-17T10:14:16;102019.00;;;21.10
6454;BMP180;3260;52.438;13.502;2022-07-17T10:16:46;102012.00;;;21.50
6454;BMP180;3260;52.438;13.502;2022-07-17T10:19:21;102007.00;;;21.80
6454;BMP180;3260;52.438;13.502;2022-07-17T10:21:56;102011.00;;;21.20
6454;BMP180;3260;52.438;13.502;2022-07-17T10:24:25;102011.00;;;21.90
6454;BMP180;3260;52.438;13.502;2022-07-17T10:26:54;102005.00;;;22.00
6454;BMP180;3260;52.438;13.502;2022-07-17T10:29:32;102003.00;;;22.30
6454;BMP180;3260;52.438;13.502;2022-07-17T10:32:07;102018.00;;;21.00
6454;BMP180;3260;52.438;13.502;2022-07-17T10:34:43;102006.00;;;21.50
6454;BMP180;3260;52.438;13.502;2022-07-17T10:37:22;101998.00;;;22.80
6454;BMP180;3260;52.438;13.502;2022-07-17T10:40:10;102005.00;;;22.90
6454;BMP180;3260;52.438;13.502;2022-07-17T10:42:51;102005.00;;;22.30
6454;BMP180;3260;52.438;13.502;2022-07-17T10:45:22;102010.00;;;21.70
6454;BMP180;3260;52.438;13.502;2022-07-17T10:47:57;102000.00;;;21.40
6454;BMP180;3260;52.438;13.502;2022-07-17T10:50:32;101991.00;;;21.50
6454;BMP180;3260;52.438;13.502;2022-07-17T10:53:07;101998.00;;;21.20
6454;BMP180;3260;52.438;13.502;2022-07-17T10:55:39;101996.00;;;22.30
6454;BMP180;3260;52.438;13.502;2022-07-17T10:58:20;102007.00;;;23.40
6454;BMP180;3260;52.438;13.502;2022-07-17T11:01:01;101999.00;;;23.70
6454;BMP180;3260;52.438;13.502;2022-07-17T11:03:32;102010.00;;;24.00
6454;BMP180;3260;52.438;13.502;2022-07-17T11:06:10;101987.00;;;24.50
6454;BMP180;3260;52.438;13.502;2022-07-17T11:08:45;102011.00;;;25.70
6454;BMP180;3260;52.438;13.502;2022-07-17T11:11:15;102010.00;;;25.20
6454;BMP180;3260;52.438;13.502;2022-07-17T11:13:53;101991.00;;;24.80
6454;BMP180;3260;52.438;13.502;2022-07-17T11:16:28;102003.00;;;25.70
6454;BMP180;3260;52.438;13.502;2022-07-17T11:18:58;102012.00;;;26.00
6454;BMP180;3260;52.438;13.502;2022-07-17T11:21:27;102007.00;;;26.60
6454;BMP180;3260;52.438;13.502;2022-07-17T11:23:57;101996.00;;;27.00
6454;BMP180;3260;52.438;13.502;2022-07-17T11:26:25;102004.00;;;25.90
6454;BMP180;3260;52.438;13.502;2022-07-17T11:28:59;102014.00;;;25.50
6454;BMP180;3260;52.438;13.502;2022-07-17T11:31:30;102007.00;;;26.40
6454;BMP180;3260;52.438;13.502;2022-07-17T11:34:01;102019.00;;;26.90
6454;BMP180;3260;52.438;13.502;2022-07-17T11:36:33;102013.00;;;28.40
6454;BMP180;3260;52.438;13.502;2022-07-17T11:39:12;102014.00;;;29.20
6454;BMP180;3260;52.438;13.502;2022-07-17T11:41:43;102011.00;;;29.50
6454;BMP180;3260;52.438;13.502;2022-07-17T11:44:14;102006.00;;;28.80
6454;BMP180;3260;52.438;13.502;2022-07-17T11:46:44;102025.00;;;28.70
6454;BMP180;3260;52.438;13.502;2022-07-17T11:49:24;102009.00;;;28.10
6454;BMP180;3260;52.438;13.502;2022-07-17T11:51:56;102004.00;;;29.00
6454;BMP180;3260;52.438;13.502;2022-07-17T11:54:26;102011.00;;;30.70
6454;BMP180;3260;52.438;13.502;2022-07-17T11:56:56;102013.00;;;32.40
6454;BMP180;3260;52.438;13.502;2022-07-17T11:59:28;102017.00;;;32.10
6454;BMP180;3260;52.438;13.502;2022-07-17T12:02:07;102014.00;;;32.20
6454;BMP180;3260;52.438;13.502;2022-07-17T12:04:36;102012.00;;;31.60
6454;BMP180;3260;52.438;13.502;2022-07-17T12:07:06;102007.00;;;33.90
6454;BMP180;3260;52.438;13.502;2022-07-17T12:09:34;102014.00;;;36.10
6454;BMP180;3260;52.438;13.502;2022-07-17T12:12:03;102021.00;;;35.00
6454;BMP180;3260;52.438;13.502;2022-07-17T12:14:31;102013.00;;;33.40
6454;BMP180;3260;52.438;13.502;2022-07-17T12:17:04;102015.00;;;36.60
6454;BMP180;3260;52.438;13.502;2022-07-17T12:19:32;102012.00;;;35.10
6454;BMP180;3260;52.438;13.502;2022-07-17T12:22:03;102018.00;;;36.00
6454;BMP180;3260;52.438;13.502;2022-07-17T12:24:37;102020.00;;;38.10
6454;BMP180;3260;52.438;13.502;2022-07-17T12:27:08;102022.00;;;39.60
6454;BMP180;3260;52.438;13.502;2022-07-17T12:29:37;102027.00;;;38.00
6454;BMP180;3260;52.438;13.502;2022-07-17T12:32:09;102016.00;;;40.10
6454;BMP180;3260;52.438;13.502;2022-07-17T12:34:40;102013.00;;;42.20
6454;BMP180;3260;52.438;13.502;2022-07-17T12:37:12;102025.00;;;41.70
6454;BMP180;3260;52.438;13.502;2022-07-17T12:39:42;102021.00;;;43.40
6454;BMP180;3260;52.438;13.502;2022-07-17T12:42:10;102013.00;;;43.70
6454;BMP180;3260;52.438;13.502;2022-07-17T12:44:38;102011.00;;;44.90
6454;BMP180;3260;52.438;13.502;2022-07-17T12:47:09;101997.00;;;45.50
6454;BMP180;3260;52.438;13.502;2022-07-17T12:49:37;102008.00;;;45.20
6454;BMP180;3260;52.438;13.502;2022-07-17T12:52:07;102015.00;;;45.60
6454;BMP180;3260;52.438;13.502;2022-07-17T12:54:35;102013.00;;;44.50
6454;BMP180;3260;52.438;13.502;2022-07-17T12:57:05;102011.00;;;45.90
6454;BMP180;3260;52.438;13.502;2022-07-17T12:59:34;102007.00;;;47.80
6454;BMP180;3260;52.438;13.502;2022-07-17T13:02:02;102029.00;;;42.60
6454;BMP180;3260;52.438;13.502;2022-07-17T13:04:31;102008.00;;;42.90
6454;BMP180;3260;52.438;13.502;2022-07-17T13:06:59;102011.00;;;45.50
6454;BMP180;3260;52.438;13.502;2022-07-17T13:09:28;102001.00;;;47.40
6454;BMP180;3260;52.438;13.502;2022-07-17T13:11:56;101996.00;;;46.30
6454;BMP180;3260;52.438;13.502;2022-07-17T13:14:26;101996.00;;;40.90
6454;BMP180;3260;52.438;13.502;2022-07-17T13:16:54;102005.00;;;44.20
6454;BMP180;3260;52.438;13.502;2022-07-17T13:19:22;102008.00;;;43.80
6454;BMP180;3260;52.438;13.502;2022-07-17T13:21:50;101983.00;;;40.90
6454;BMP180;3260;52.438;13.502;2022-07-17T13:24:18;101991.00;;;43.00
6454;BMP180;3260;52.438;13.502;2022-07-17T13:26:47;101996.00;;;44.20
6454;BMP180;3260;52.438;13.502;2022-07-17T13:29:15;101992.00;;;47.40
6454;BMP180;3260;52.438;13.502;2022-07-17T13:31:45;101982.00;;;49.40
6454;BMP180;3260;52.438;13.502;2022-07-17T13:34:22;101990.00;;;46.30
6454;BMP180;3260;52.438;13.502;2022-07-17T13:36:51;101980.00;;;43.60
6454;BMP180;3260;52.438;13.502;2022-07-17T13:39:19;101982.00;;;43.50
6454;BMP180;3260;52.438;13.502;2022-07-17T13:41:47;101995.00;;;44.00
6454;BMP180;3260;52.438;13.502;2022-07-17T13:44:15;101983.00;;;45.10
6454;BMP180;3260;52.438;13.502;2022-07-17T13:46:45;101982.00;;;48.90
6454;BMP180;3260;52.438;13.502;2022-07-17T13:49:13;101976.00;;;48.00
6454;BMP180;3260;52.438;13.502;2022-07-17T13:51:42;101984.00;;;43.00
6454;BMP180;3260;52.438;13.502;2022-07-17T13:54:10;101972.00;;;40.30
6454;BMP180;3260;52.438;13.502;2022-07-17T13:56:39;101971.00;;;40.20
6454;BMP180;3260;52.438;13.502;2022-07-17T13:59:07;101969.00;;;41.20
6454;BMP180;3260;52.438;13.502;2022-07-17T14:01:35;101955.00;;;44.10
6454;BMP180;3260;52.438;13.502;2022-07-17T14:04:05;101972.00;;;48.50
6454;BMP180;3260;52.438;13.502;2022-07-17T14:06:33;101970.00;;;44.70
6454;BMP180;3260;52.438;13.502;2022-07-17T14:09:02;101961.00;;;43.70
6454;BMP180;3260;52.438;13.502;2022-07-17T14:11:30;101962.00;;;42.60
6454;BMP180;3260;52.438;13.502;2022-07-17T14:13:58;101965.00;;;42.60
6454;BMP180;3260;52.438;13.502;2022-07-17T14:16:26;101966.00;;;45.30
6454;BMP180;3260;52.438;13.502;2022-07-17T14:18:55;101957.00;;;44.80
6454;BMP180;3260;52.438;13.502;2022-07-17T14:21:30;101966.00;;;47.20
6454;BMP180;3260;52.438;13.502;2022-07-17T14:23:59;101964.00;;;50.70
6454;BMP180;3260;52.438;13.502;2022-07-17T14:26:28;101969.00;;;51.30
6454;BMP180;3260;52.438;13.502;2022-07-17T14:28:58;101964.00;;;51.00
6454;BMP180;3260;52.438;13.502;2022-07-17T14:31:28;101948.00;;;51.10
6454;BMP180;3260;52.438;13.502;2022-07-17T14:33:56;101963.00;;;52.10
6454;BMP180;3260;52.438;13.502;2022-07-17T14:36:24;101958.00;;;52.90
6454;BMP180;3260;52.438;13.502;2022-07-17T14:38:55;101959.00;;;53.10
6454;BMP180;3260;52.438;13.502;2022-07-17T14:41:23;101953.00;;;50.90
6454;BMP180;3260;52.438;13.502;2022-07-17T14:43:53;101948.00;;;53.60
6454;BMP180;3260;52.438;13.502;2022-07-17T14:46:21;101954.00;;;52.70
6454;BMP180;3260;52.438;13.502;2022-07-17T14:48:49;101953.00;;;51.70
6454;BMP180;3260;52.438;13.502;2022-07-17T14:51:17;101952.00;;;52.50
6454;BMP180;3260;52.438;13.502;2022-07-17T14:53:46;101953.00;;;52.90
6454;BMP180;3260;52.438;13.502;2022-07-17T14:56:15;101954.00;;;52.60
6454;BMP180;3260;52.438;13.502;2022-07-17T14:58:43;101951.00;;;53.40
6454;BMP180;3260;52.438;13.502;2022-07-17T15:01:11;101951.00;;;53.40
6454;BMP180;3260;52.438;13.502;2022-07-17T15:03:40;101947.00;;;53.30
6454;BMP180;3260;52.438;13.502;2022-07-17T15:06:08;101942.00;;;50.90
6454;BMP180;3260;52.438;13.502;2022-07-17T15:08:36;101943.00;;;49.20
6454;BMP180;3260;52.438;13.502;2022-07-17T15:11:04;101947.00;;;50.40
6454;BMP180;3260;52.438;13.502;2022-07-17T15:13:34;101956.00;;;50.20
6454;BMP180;3260;52.438;13.502;2022-07-17T15:16:02;101950.00;;;49.10
6454;BMP180;3260;52.438;13.502;2022-07-17T15:18:31;101953.00;;;46.90
6454;BMP180;3260;52.438;13.502;2022-07-17T15:20:59;101952.00;;;49.70
6454;BMP180;3260;52.438;13.502;2022-07-17T15:23:27;101940.00;;;50.50
6454;BMP180;3260;52.438;13.502;2022-07-17T15:25:55;101959.00;;;45.90
6454;BMP180;3260;52.438;13.502;2022-07-17T15:28:23;101946.00;;;43.30
6454;BMP180;3260;52.438;13.502;2022-07-17T15:30:53;101944.00;;;42.40
6454;BMP180;3260;52.438;13.502;2022-07-17T15:33:21;101936.00;;;41.00
6454;BMP180;3260;52.438;13.502;2022-07-17T15:35:52;101922.00;;;38.60
6454;BMP180;3260;52.438;13.502;2022-07-17T15:38:20;101925.00;;;41.50
6454;BMP180;3260;52.438;13.502;2022-07-17T15:40:49;101924.00;;;46.30
6454;BMP180;3260;52.438;13.502;2022-07-17T15:43:17;101920.00;;;47.00
6454;BMP180;3260;52.438;13.502;2022-07-17T15:45:45;101939.00;;;48.90
6454;BMP180;3260;52.438;13.502;2022-07-17T15:48:15;101921.00;;;48.70
6454;BMP180;3260;52.438;13.502;2022-07-17T15:50:43;101914.00;;;48.60
6454;BMP180;3260;52.438;13.502;2022-07-17T15:53:11;101922.00;;;45.50
6454;BMP180;3260;52.438;13.502;2022-07-17T15:55:40;101923.00;;;45.70
6454;BMP180;3260;52.438;13.502;2022-07-17T15:58:08;101915.00;;;48.00
6454;BMP180;3260;52.438;13.502;2022-07-17T16:00:36;101922.00;;;48.70
6454;BMP180;3260;52.438;13.502;2022-07-17T16:03:04;101911.00;;;48.00
6454;BMP180;3260;52.438;13.502;2022-07-17T16:05:34;101912.00;;;48.40
6454;BMP180;3260;52.438;13.502;2022-07-17T16:08:03;101905.00;;;49.90
6454;BMP180;3260;52.438;13.502;2022-07-17T16:10:31;101899.00;;;50.50
6454;BMP180;3260;52.438;13.502;2022-07-17T16:12:59;101900.00;;;50.90
6454;BMP180;3260;52.438;13.502;2022-07-17T16:15:27;101900.00;;;50.00
6454;BMP180;3260;52.438;13.502;2022-07-17T16:17:56;101902.00;;;48.10
6454;BMP180;3260;52.438;13.502;2022-07-17T16:20:24;101892.00;;;45.40
6454;BMP180;3260;52.438;13.502;2022-07-17T16:22:55;101898.00;;;44.60
6454;BMP180;3260;52.438;13.502;2022-07-17T16:25:23;101900.00;;;45.90
6454;BMP180;3260;52.438;13.502;2022-07-17T16:27:51;101893.00;;;43.80
6454;BMP180;3260;52.438;13.502;2022-07-17T16:30:19;101888.00;;;45.30
6454;BMP180;3260;52.438;13.502;2022-07-17T16:32:47;101885.00;;;47.80
6454;BMP180;3260;52.438;13.502;2022-07-17T16:35:16;101887.00;;;48.10
6454;BMP180;3260;52.438;13.502;2022-07-17T16:37:44;101883.00;;;47.60
6454;BMP180;3260;52.438;13.502;2022-07-17T16:40:13;101888.00;;;48.00
6454;BMP180;3260;52.438;13.502;2022-07-17T16:42:42;101883.00;;;48.80
6454;BMP180;3260;52.438;13.502;2022-07-17T16:45:10;101883.00;;;48.90
6454;BMP180;3260;52.438;13.502;2022-07-17T16:47:38;101880.00;;;49.50
6454;BMP180;3260;52.438;13.502;2022-07-17T16:50:07;101885.00;;;49.10
6454;BMP180;3260;52.438;13.502;2022-07-17T16:52:36;101889.00;;;46.90
6454;BMP180;3260;52.438;13.502;2022-07-17T16:55:06;101877.00;;;45.10
6454;BMP180;3260;52.438;13.502;2022-07-17T16:57:37;101886.00;;;43.50
6454;BMP180;3260;52.438;13.502;2022-07-17T17:00:07;101887.00;;;42.80
6454;BMP180;3260;52.438;13.502;2022-07-17T17:02:35;101877.00;;;42.50
6454;BMP180;3260;52.438;13.502;2022-07-17T17:05:04;101879.00;;;43.10
6454;BMP180;3260;52.438;13.502;2022-07-17T17:07:33;101878.00;;;44.80
6454;BMP180;3260;52.438;13.502;2022-07-17T17:10:01;101871.00;;;44.00
6454;BMP180;3260;52.438;13.502;2022-07-17T17:12:29;101871.00;;;43.30
6454;BMP180;3260;52.438;13.502;2022-07-17T17:14:59;101864.00;;;41.90
6454;BMP180;3260;52.438;13.502;2022-07-17T17:17:27;101870.00;;;43.40
6454;BMP180;3260;52.438;13.502;2022-07-17T17:19:55;101862.00;;;43.30
6454;BMP180;3260;52.438;13.502;2022-07-17T17:22:24;101862.00;;;42.60
6454;BMP180;3260;52.438;13.502;2022-07-17T17:24:52;101855.00;;;43.20
6454;BMP180;3260;52.438;13.502;2022-07-17T17:27:20;101865.00;;;43.30
6454;BMP180;3260;52.438;13.502;2022-07-17T17:29:48;101870.00;;;42.90
6454;BMP180;3260;52.438;13.502;2022-07-17T17:32:18;101873.00;;;41.90
6454;BMP180;3260;52.438;13.502;2022-07-17T17:34:46;101870.00;;;40.50
6454;BMP180;3260;52.438;13.502;2022-07-17T17:37:14;101851.00;;;41.60
6454;BMP180;3260;52.438;13.502;2022-07-17T17:39:42;101861.00;;;42.10
6454;BMP180;3260;52.438;13.502;2022-07-17T17:42:10;101853.00;;;40.20
6454;BMP180;3260;52.438;13.502;2022-07-17T17:44:38;101850.00;;;41.40
6454;BMP180;3260;52.438;13.502;2022-07-17T17:47:06;101853.00;;;40.70
6454;BMP180;3260;52.438;13.502;2022-07-17T17:49:36;101849.00;;;40.70
6454;BMP180;3260;52.438;13.502;2022-07-17T17:52:05;101851.00;;;39.80
6454;BMP180;3260;52.438;13.502;2022-07-17T17:54:33;101853.00;;;38.70
6454;BMP180;3260;52.438;13.502;2022-07-17T17:57:01;101855.00;;;38.90
6454;BMP180;3260;52.438;13.502;2022-07-17T17:59:29;101862.00;;;38.70
6454;BMP180;3260;52.438;13.502;2022-07-17T18:02:03;101861.00;;;37.10
6454;BMP180;3260;52.438;13.502;2022-07-17T18:04:32;101861.00;;;37.50
6454;BMP180;3260;52.438;13.502;2022-07-17T18:07:03;101857.00;;;36.10
6454;BMP180;3260;52.438;13.502;2022-07-17T18:09:31;101862.00;;;35.00
6454;BMP180;3260;52.438;13.502;2022-07-17T18:11:59;101857.00;;;33.00
6454;BMP180;3260;52.438;13.502;2022-07-17T18:14:27;101861.00;;;31.70
6454;BMP180;3260;52.438;13.502;2022-07-17T18:16:55;101856.00;;;29.60
6454;BMP180;3260;52.438;13.502;2022-07-17T18:19:23;101855.00;;;29.50
6454;BMP180;3260;52.438;13.502;2022-07-17T18:21:51;101843.00;;;28.90
6454;BMP180;3260;52.438;13.502;2022-07-17T18:24:21;101852.00;;;28.40